sensor_id;sensor_type;location;lat;lon;timestamp;pressure;altitude;pressure_sealevel;temperature;humidity
35519;BME280;21627;48.216;16.482;2022-09-13T00:01:08;99766.13;;;12.83;100.00
35519;BME280;21627;48.216;16.482;2022-09-13T00:03:39;99760.94;;;12.80;100.00
35519;BME280;21627;48.216;16.482;2022-09-13T00:06:18;99760.97;;;12.76;100.00
35519;BME280;21627;48.216;16.482;2022-09-13T00:08:46;99752.34;;;12.76;100.00
35519;BME280;21627;48.216;16.482;2022-09-13T00:11:26;99764.47;;;12.72;100.00
35519;BME280;21627;48.216;16.482;2022-09-13T00:13:55;99755.00;;;12.68;100.00
35519;BME280;21627;48.216;16.482;2022-09-13T00:16:27;99755.88;;;12.66;100.00
35519;BME280;21627;48.216;16.482;2022-09-13T00:18:55;99752.47;;;12.61;100.00
35519;BME280;21627;48.216;16.482;2022-09-13T00:21:25;99753.34;;;12.58;100.00
35519;BME280;21627;48.216;16.482;2022-09-13T00:23:56;99745.56;;;12.56;100.00
35519;BME280;21627;48.216;16.482;2022-09-13T00:26:26;99744.75;;;12.53;100.00
35519;BME280;21627;48.216;16.482;2022-09-13T00:28:58;99729.25;;;12.45;100.00
35519;BME280;21627;48.216;16.482;2022-09-13T00:31:27;99731.84;;;12.45;100.00
35519;BME280;21627;48.216;16.482;2022-09-13T00:33:56;99731.81;;;12.47;100.00
35519;BME280;21627;48.216;16.482;2022-09-13T00:36:24;99728.38;;;12.46;100.00
35519;BME280;21627;48.216;16.482;2022-09-13T00:38:51;99736.13;;;12.49;100.00
35519;BME280;21627;48.216;16.482;2022-09-13T00:41:20;99723.25;;;12.40;100.00
35519;BME280;21627;48.216;16.482;2022-09-13T00:43:53;99739.63;;;12.42;100.00
35519;BME280;21627;48.216;16.482;2022-09-13T00:46:36;99750.03;;;12.41;100.00
35519;BME280;21627;48.216;16.482;2022-09-13T00:51:39;99739.69;;;12.38;100.00
35519;BME280;21627;48.216;16.482;2022-09-13T00:54:09;99728.50;;;12.32;100.00
35519;BME280;21627;48.216;16.482;2022-09-13T00:56:44;99739.72;;;12.33;100.00
35519;BME280;21627;48.216;16.482;2022-09-13T00:59:39;99733.69;;;12.29;100.00
35519;BME280;21627;48.216;16.482;2022-09-13T01:02:07;99719.09;;;12.18;100.00
35519;BME280;21627;48.216;16.482;2022-09-13T01:04:35;99730.25;;;12.24;100.00
35519;BME280;21627;48.216;16.482;2022-09-13T01:07:08;99732.03;;;12.22;100.00
35519;BME280;21627;48.216;16.482;2022-09-13T01:09:44;99719.97;;;12.15;100.00
35519;BME280;21627;48.216;16.482;2022-09-13T01:15:01;99718.31;;;12.03;100.00
35519;BME280;21627;48.216;16.482;2022-09-13T01:17:31;99730.41;;;12.07;100.00
35519;BME280;21627;48.216;16.482;2022-09-13T01:20:04;99729.56;;;12.02;100.00
35519;BME280;21627;48.216;16.482;2022-09-13T01:23:10;99704.59;;;11.87;100.00
35519;BME280;21627;48.216;16.482;2022-09-13T01:25:49;99724.41;;;11.96;100.00
35519;BME280;21627;48.216;16.482;2022-09-13T01:28:52;99727.03;;;11.91;100.00
35519;BME280;21627;48.216;16.482;2022-09-13T01:37:29;99711.50;;;11.81;100.00
35519;BME280;21627;48.216;16.482;2022-09-13T01:40:30;99713.25;;;11.76;100.00
35519;BME280;21627;48.216;16.482;2022-09-13T01:43:26;99709.84;;;11.72;100.00
35519;BME280;21627;48.216;16.482;2022-09-13T01:49:07;99701.22;;;11.70;100.00
35519;BME280;21627;48.216;16.482;2022-09-13T01:54:23;99689.16;;;11.64;100.00
35519;BME280;21627;48.216;16.482;2022-09-13T01:57:23;99687.41;;;11.68;100.00
35519;BME280;21627;48.216;16.482;2022-09-13T02:00:13;99679.66;;;11.65;100.00
35519;BME280;21627;48.216;16.482;2022-09-13T02:03:01;99672.78;;;11.61;100.00
35519;BME280;21627;48.216;16.482;2022-09-13T02:05:54;99679.69;;;11.60;100.00
35519;BME280;21627;48.216;16.482;2022-09-13T02:08:48;99670.19;;;11.56;100.00
35519;BME280;21627;48.216;16.482;2022-09-13T02:11:17;99660.78;;;11.49;100.00
35519;BME280;21627;48.216;16.482;2022-09-13T02:14:17;99658.16;;;11.52;100.00
35519;BME280;21627;48.216;16.482;2022-09-13T02:22:24;99635.78;;;11.36;100.00
35519;BME280;21627;48.216;16.482;2022-09-13T02:24:56;99639.22;;;11.42;100.00
35519;BME280;21627;48.216;16.482;2022-09-13T02:27:29;99657.31;;;11.50;100.00
35519;BME280;21627;48.216;16.482;2022-09-13T02:30:05;99651.28;;;11.46;100.00
35519;BME280;21627;48.216;16.482;2022-09-13T02:32:44;99653.88;;;11.43;100.00
35519;BME280;21627;48.216;16.482;2022-09-13T02:35:45;99653.88;;;11.45;100.00
35519;BME280;21627;48.216;16.482;2022-09-13T02:38:23;99633.19;;;11.36;100.00
35519;BME280;21627;48.216;16.482;2022-09-13T02:41:18;99645.28;;;11.40;100.00
35519;BME280;21627;48.216;16.482;2022-09-13T02:43:57;99629.81;;;11.27;100.00
35519;BME280;21627;48.216;16.482;2022-09-13T02:47:19;99644.47;;;11.32;100.00
35519;BME280;21627;48.216;16.482;2022-09-13T02:55:27;99630.75;;;11.08;100.00
35519;BME280;21627;48.216;16.482;2022-09-13T02:58:04;99641.06;;;11.11;100.00
35519;BME280;21627;48.216;16.482;2022-09-13T03:00:33;99648.00;;;11.14;100.00
35519;BME280;21627;48.216;16.482;2022-09-13T03:03:08;99642.84;;;11.09;100.00
35519;BME280;21627;48.216;16.482;2022-09-13T03:05:39;99636.78;;;11.10;100.00
35519;BME280;21627;48.216;16.482;2022-09-13T03:08:09;99636.78;;;11.05;100.00
35519;BME280;21627;48.216;16.482;2022-09-13T03:10:50;99629.88;;;11.06;100.00
35519;BME280;21627;48.216;16.482;2022-09-13T03:13:34;99641.13;;;11.07;100.00
35519;BME280;21627;48.216;16.482;2022-09-13T03:16:35;99634.22;;;11.04;100.00
35519;BME280;21627;48.216;16.482;2022-09-13T03:19:39;99640.28;;;11.01;100.00
35519;BME280;21627;48.216;16.482;2022-09-13T03:26:19;99635.09;;;10.98;100.00
35519;BME280;21627;48.216;16.482;2022-09-13T03:38:10;99613.56;;;10.90;100.00
35519;BME280;21627;48.216;16.482;2022-09-13T03:40:52;99623.91;;;10.93;100.00
35519;BME280;21627;48.216;16.482;2022-09-13T03:49:19;99628.22;;;10.88;100.00
35519;BME280;21627;48.216;16.482;2022-09-13T03:51:50;99627.38;;;10.85;100.00
35519;BME280;21627;48.216;16.482;2022-09-13T03:54:30;99599.00;;;10.69;100.00
35519;BME280;21627;48.216;16.482;2022-09-13T03:57:17;99607.56;;;10.76;100.00
35519;BME280;21627;48.216;16.482;2022-09-13T03:59:53;99611.88;;;10.75;100.00
35519;BME280;21627;48.216;16.482;2022-09-13T04:02:22;99624.81;;;10.81;100.00
35519;BME280;21627;48.216;16.482;2022-09-13T04:04:51;99605.03;;;10.67;100.00
35519;BME280;21627;48.216;16.482;2022-09-13T04:07:21;99627.38;;;10.78;100.00
35519;BME280;21627;48.216;16.482;2022-09-13T04:09:48;99629.13;;;10.75;100.00
35519;BME280;21627;48.216;16.482;2022-09-13T04:12:17;99633.44;;;10.74;100.00
35519;BME280;21627;48.216;16.482;2022-09-13T04:14:48;99640.34;;;10.72;100.00
35519;BME280;21627;48.216;16.482;2022-09-13T04:17:15;99626.56;;;10.67;100.00
35519;BME280;21627;48.216;16.482;2022-09-13T04:19:42;99636.88;;;10.73;100.00
35519;BME280;21627;48.216;16.482;2022-09-13T04:22:12;99624.84;;;10.68;100.00
35519;BME280;21627;48.216;16.482;2022-09-13T04:24:43;99624.00;;;10.61;100.00
35519;BME280;21627;48.216;16.482;2022-09-13T04:27:11;99626.59;;;10.64;100.00
35519;BME280;21627;48.216;16.482;2022-09-13T04:29:38;99633.47;;;10.65;100.00
35519;BME280;21627;48.216;16.482;2022-09-13T04:32:09;99643.81;;;10.67;100.00
35519;BME280;21627;48.216;16.482;2022-09-13T04:34:36;99640.38;;;10.66;100.00
35519;BME280;21627;48.216;16.482;2022-09-13T04:37:07;99634.34;;;10.64;100.00
35519;BME280;21627;48.216;16.482;2022-09-13T04:39:38;99631.72;;;10.66;100.00
35519;BME280;21627;48.216;16.482;2022-09-13T04:42:05;99614.53;;;10.57;100.00
35519;BME280;21627;48.216;16.482;2022-09-13T04:44:33;99620.56;;;10.59;100.00
35519;BME280;21627;48.216;16.482;2022-09-13T04:47:00;99630.00;;;10.63;100.00
35519;BME280;21627;48.216;16.482;2022-09-13T04:49:27;99619.69;;;10.60;100.00
35519;BME280;21627;48.216;16.482;2022-09-13T04:51:54;99630.91;;;10.62;100.00
35519;BME280;21627;48.216;16.482;2022-09-13T04:54:21;99611.94;;;10.55;100.00
35519;BME280;21627;48.216;16.482;2022-09-13T04:56:49;99616.22;;;10.63;100.00
35519;BME280;21627;48.216;16.482;2022-09-13T04:59:16;99614.53;;;10.61;100.00
35519;BME280;21627;48.216;16.482;2022-09-13T05:01:43;99632.63;;;10.65;100.00
35519;BME280;21627;48.216;16.482;2022-09-13T05:04:10;99633.50;;;10.64;100.00
35519;BME280;21627;48.216;16.482;2022-09-13T05:06:37;99632.63;;;10.65;100.00
35519;BME280;21627;48.216;16.482;2022-09-13T05:09:12;99644.69;;;10.69;100.00
35519;BME280;21627;48.216;16.482;2022-09-13T05:11:43;99645.50;;;10.71;100.00
35519;BME280;21627;48.216;16.482;2022-09-13T05:14:11;99645.53;;;10.72;100.00
35519;BME280;21627;48.216;16.482;2022-09-13T05:16:38;99624.00;;;10.64;100.00
35519;BME280;21627;48.216;16.482;2022-09-13T05:19:05;99626.59;;;10.69;100.00
35519;BME280;21627;48.216;16.482;2022-09-13T05:21:35;99626.56;;;10.72;100.00
35519;BME280;21627;48.216;16.482;2022-09-13T05:24:05;99634.28;;;10.78;100.00
35519;BME280;21627;48.216;16.482;2022-09-13T05:26:36;99636.03;;;10.83;100.00
35519;BME280;21627;48.216;16.482;2022-09-13T05:29:07;99636.03;;;10.83;100.00
35519;BME280;21627;48.216;16.482;2022-09-13T05:31:41;99634.31;;;10.79;100.00
35519;BME280;21627;48.216;16.482;2022-09-13T05:34:14;99644.59;;;10.90;100.00
35519;BME280;21627;48.216;16.482;2022-09-13T05:36:42;99642.00;;;10.93;100.00
35519;BME280;21627;48.216;16.482;2022-09-13T05:39:13;99631.69;;;10.89;100.00
35519;BME280;21627;48.216;16.482;2022-09-13T05:42:01;99639.41;;;10.99;100.00
35519;BME280;21627;48.216;16.482;2022-09-13T05:44:29;99644.56;;;11.02;100.00
35519;BME280;21627;48.216;16.482;2022-09-13T05:46:56;99642.00;;;11.04;100.00
35519;BME280;21627;48.216;16.482;2022-09-13T05:49:24;99657.47;;;11.10;100.00
35519;BME280;21627;48.216;16.482;2022-09-13T05:51:54;99653.16;;;11.14;100.00
35519;BME280;21627;48.216;16.482;2022-09-13T05:54:22;99647.94;;;11.20;100.00
35519;BME280;21627;48.216;16.482;2022-09-13T05:56:49;99648.78;;;11.23;100.00
35519;BME280;21627;48.216;16.482;2022-09-13T05:59:18;99648.78;;;11.30;100.00
35519;BME280;21627;48.216;16.482;2022-09-13T06:01:45;99647.03;;;11.35;100.00
35519;BME280;21627;48.216;16.482;2022-09-13T06:04:14;99646.13;;;11.39;100.00
35519;BME280;21627;48.216;16.482;2022-09-13T06:06:42;99650.41;;;11.46;100.00
35519;BME280;21627;48.216;16.482;2022-09-13T06:09:10;99632.31;;;11.44;100.00
35519;BME280;21627;48.216;16.482;2022-09-13T06:11:37;99640.88;;;11.56;100.00
35519;BME280;21627;48.216;16.482;2022-09-13T06:14:05;99632.22;;;11.60;100.00
35519;BME280;21627;48.216;16.482;2022-09-13T06:16:32;99639.94;;;11.66;100.00
35519;BME280;21627;48.216;16.482;2022-09-13T06:19:00;99650.22;;;11.80;100.00
35519;BME280;21627;48.216;16.482;2022-09-13T06:21:27;99647.63;;;11.87;100.00
35519;BME280;21627;48.216;16.482;2022-09-13T06:23:55;99645.00;;;11.90;100.00
35519;BME280;21627;48.216;16.482;2022-09-13T06:26:26;99626.84;;;11.92;100.00
35519;BME280;21627;48.216;16.482;2022-09-13T06:28:55;99637.97;;;12.03;100.00
35519;BME280;21627;48.216;16.482;2022-09-13T06:31:26;99631.88;;;12.10;100.00
35519;BME280;21627;48.216;16.482;2022-09-13T06:33:59;99619.75;;;12.14;100.00
35519;BME280;21627;48.216;16.482;2022-09-13T06:36:29;99630.00;;;12.26;100.00
35519;BME280;21627;48.216;16.482;2022-09-13T06:38:57;99625.69;;;12.27;100.00
35519;BME280;21627;48.216;16.482;2022-09-13T06:41:26;99642.88;;;12.40;100.00
35519;BME280;21627;48.216;16.482;2022-09-13T06:43:56;99640.19;;;12.48;100.00
35519;BME280;21627;48.216;16.482;2022-09-13T06:46:30;99608.22;;;12.44;100.00
35519;BME280;21627;48.216;16.482;2022-09-13T06:49:00;99634.78;;;12.69;100.00
35519;BME280;21627;48.216;16.482;2022-09-13T06:51:28;99631.25;;;12.75;100.00
35519;BME280;21627;48.216;16.482;2022-09-13T06:53:59;99645.03;;;12.83;100.00
35519;BME280;21627;48.216;16.482;2022-09-13T06:56:32;99634.56;;;12.91;100.00
35519;BME280;21627;48.216;16.482;2022-09-13T06:59:03;99641.38;;;12.99;100.00
35519;BME280;21627;48.216;16.482;2022-09-13T07:01:34;99636.13;;;13.06;100.00
35519;BME280;21627;48.216;16.482;2022-09-13T07:04:08;99638.66;;;13.10;100.00
35519;BME280;21627;48.216;16.482;2022-09-13T07:06:41;99630.78;;;13.16;100.00
35519;BME280;21627;48.216;16.482;2022-09-13T07:09:17;99635.00;;;13.27;100.00
35519;BME280;21627;48.216;16.482;2022-09-13T07:11:46;99629.78;;;13.31;100.00
35519;BME280;21627;48.216;16.482;2022-09-13T07:14:21;99633.13;;;13.38;100.00
35519;BME280;21627;48.216;16.482;2022-09-13T07:16:50;99627.81;;;13.47;100.00
35519;BME280;21627;48.216;16.482;2022-09-13T07:19:20;99616.41;;;13.57;100.00
35519;BME280;21627;48.216;16.482;2022-09-13T07:21:49;99615.44;;;13.66;100.00
35519;BME280;21627;48.216;16.482;2022-09-13T07:24:18;99610.06;;;13.75;100.00
35519;BME280;21627;48.216;16.482;2022-09-13T07:26:50;99617.75;;;13.83;100.00
35519;BME280;21627;48.216;16.482;2022-09-13T07:29:20;99613.31;;;13.91;100.00
35519;BME280;21627;48.216;16.482;2022-09-13T07:31:53;99611.53;;;13.93;100.00
35519;BME280;21627;48.216;16.482;2022-09-13T07:34:25;99639.00;;;14.11;100.00
35519;BME280;21627;48.216;16.482;2022-09-13T07:36:52;99626.00;;;14.11;100.00
35519;BME280;21627;48.216;16.482;2022-09-13T07:39:20;99630.25;;;14.15;100.00
35519;BME280;21627;48.216;16.482;2022-09-13T07:41:50;99628.34;;;14.26;100.00
35519;BME280;21627;48.216;16.482;2022-09-13T07:44:17;99630.81;;;14.33;100.00
35519;BME280;21627;48.216;16.482;2022-09-13T07:46:47;99631.50;;;14.44;100.00
35519;BME280;21627;48.216;16.482;2022-09-13T07:49:18;99628.78;;;14.48;100.00
35519;BME280;21627;48.216;16.482;2022-09-13T07:51:46;99626.00;;;14.61;100.00
35519;BME280;21627;48.216;16.482;2022-09-13T07:54:17;99639.66;;;14.74;100.00
35519;BME280;21627;48.216;16.482;2022-09-13T07:56:45;99638.72;;;14.78;100.00
35519;BME280;21627;48.216;16.482;2022-09-13T07:59:16;99644.69;;;14.84;100.00
35519;BME280;21627;48.216;16.482;2022-09-13T08:01:48;99639.28;;;14.93;100.00
35519;BME280;21627;48.216;16.482;2022-09-13T08:04:18;99628.63;;;15.06;100.00
35519;BME280;21627;48.216;16.482;2022-09-13T08:06:47;99619.69;;;15.18;100.00
35519;BME280;21627;48.216;16.482;2022-09-13T08:09:17;99618.63;;;15.26;100.00
35519;BME280;21627;48.216;16.482;2022-09-13T08:11:50;99607.22;;;15.32;100.00
35519;BME280;21627;48.216;16.482;2022-09-13T08:14:21;99612.28;;;15.40;100.00
35519;BME280;21627;48.216;16.482;2022-09-13T08:16:49;99624.81;;;15.61;100.00
35519;BME280;21627;48.216;16.482;2022-09-13T08:19:17;99630.75;;;15.69;100.00
35519;BME280;21627;48.216;16.482;2022-09-13T08:21:45;99638.47;;;15.74;100.00
35519;BME280;21627;48.216;16.482;2022-09-13T08:24:19;99638.38;;;15.78;100.00
35519;BME280;21627;48.216;16.482;2022-09-13T08:26:48;99627.84;;;15.82;100.00
35519;BME280;21627;48.216;16.482;2022-09-13T08:29:16;99650.84;;;16.03;96.80
35519;BME280;21627;48.216;16.482;2022-09-13T08:31:43;99647.09;;;16.13;94.80
35519;BME280;21627;48.216;16.482;2022-09-13T08:34:15;99631.56;;;16.09;95.95
35519;BME280;21627;48.216;16.482;2022-09-13T08:36:43;99639.09;;;16.21;92.98
35519;BME280;21627;48.216;16.482;2022-09-13T08:39:14;99636.41;;;16.24;94.58
35519;BME280;21627;48.216;16.482;2022-09-13T08:44:33;99634.25;;;16.40;96.56
35519;BME280;21627;48.216;16.482;2022-09-13T08:50:20;99637.91;;;16.67;94.27
35519;BME280;21627;48.216;16.482;2022-09-13T08:52:56;99630.63;;;16.80;90.71
35519;BME280;21627;48.216;16.482;2022-09-13T09:04:38;99617.28;;;17.20;87.05
35519;BME280;21627;48.216;16.482;2022-09-13T09:07:36;99606.69;;;17.25;86.07
35519;BME280;21627;48.216;16.482;2022-09-13T09:10:44;99604.09;;;17.25;85.54
35519;BME280;21627;48.216;16.482;2022-09-13T09:13:44;99621.16;;;17.37;84.88
35519;BME280;21627;48.216;16.482;2022-09-13T09:16:38;99618.13;;;17.50;83.35
35519;BME280;21627;48.216;16.482;2022-09-13T09:19:26;99610.84;;;17.60;80.78
35519;BME280;21627;48.216;16.482;2022-09-13T09:21:56;99614.16;;;17.67;83.30
35519;BME280;21627;48.216;16.482;2022-09-13T09:24:25;99617.25;;;17.78;79.25
35519;BME280;21627;48.216;16.482;2022-09-13T09:26:54;99617.84;;;17.88;79.02
35519;BME280;21627;48.216;16.482;2022-09-13T09:29:31;99611.78;;;17.87;80.68
35519;BME280;21627;48.216;16.482;2022-09-13T09:40:51;99604.41;;;18.25;80.28
35519;BME280;21627;48.216;16.482;2022-09-13T09:43:31;99598.94;;;18.33;81.49
35519;BME280;21627;48.216;16.482;2022-09-13T09:46:02;99590.81;;;18.41;78.66
35519;BME280;21627;48.216;16.482;2022-09-13T09:48:44;99598.34;;;18.50;80.08
35519;BME280;21627;48.216;16.482;2022-09-13T09:51:12;99585.19;;;18.51;79.12
35519;BME280;21627;48.216;16.482;2022-09-13T09:53:44;99581.59;;;18.54;77.74
35519;BME280;21627;48.216;16.482;2022-09-13T09:56:24;99584.72;;;18.65;76.88
35519;BME280;21627;48.216;16.482;2022-09-13T09:58:53;99563.41;;;18.74;78.88
35519;BME280;21627;48.216;16.482;2022-09-13T10:01:28;99561.22;;;18.87;78.02
35519;BME280;21627;48.216;16.482;2022-09-13T10:06:31;99547.97;;;18.92;74.77
35519;BME280;21627;48.216;16.482;2022-09-13T10:09:17;99562.38;;;19.03;75.15
35519;BME280;21627;48.216;16.482;2022-09-13T10:11:53;99549.22;;;19.27;74.92
35519;BME280;21627;48.216;16.482;2022-09-13T10:14:47;99543.59;;;19.38;71.53
35519;BME280;21627;48.216;16.482;2022-09-13T10:17:23;99544.31;;;19.41;73.22
35519;BME280;21627;48.216;16.482;2022-09-13T10:20:02;99539.13;;;19.62;69.85
35519;BME280;21627;48.216;16.482;2022-09-13T10:22:33;99548.22;;;19.75;69.92
35519;BME280;21627;48.216;16.482;2022-09-13T10:25:24;99549.44;;;19.88;67.64
35519;BME280;21627;48.216;16.482;2022-09-13T10:27:57;99543.41;;;20.07;69.30
35519;BME280;21627;48.216;16.482;2022-09-13T10:30:45;99542.47;;;20.08;67.45
35519;BME280;21627;48.216;16.482;2022-09-13T10:35:59;99536.47;;;20.06;68.64
35519;BME280;21627;48.216;16.482;2022-09-13T10:38:38;99531.06;;;20.09;67.95
35519;BME280;21627;48.216;16.482;2022-09-13T10:41:22;99543.13;;;20.13;69.02
35519;BME280;21627;48.216;16.482;2022-09-13T10:43:58;99539.31;;;20.20;66.63
35519;BME280;21627;48.216;16.482;2022-09-13T10:46:34;99545.63;;;20.37;67.00
35519;BME280;21627;48.216;16.482;2022-09-13T10:49:02;99550.81;;;20.38;66.51
35519;BME280;21627;48.216;16.482;2022-09-13T10:51:35;99553.31;;;20.41;66.71
35519;BME280;21627;48.216;16.482;2022-09-13T10:54:18;99535.94;;;20.39;66.73
35519;BME280;21627;48.216;16.482;2022-09-13T10:56:47;99547.84;;;20.46;65.55
35519;BME280;21627;48.216;16.482;2022-09-13T10:59:25;99547.72;;;20.49;66.20
35519;BME280;21627;48.216;16.482;2022-09-13T11:05:19;99533.09;;;20.64;65.79
35519;BME280;21627;48.216;16.482;2022-09-13T11:08:49;99527.84;;;20.83;64.78
35519;BME280;21627;48.216;16.482;2022-09-13T11:11:36;99523.88;;;21.12;60.49
35519;BME280;21627;48.216;16.482;2022-09-13T11:31:37;99508.31;;;21.63;62.65
35519;BME280;21627;48.216;16.482;2022-09-13T11:37:36;99501.81;;;21.87;62.14
35519;BME280;21627;48.216;16.482;2022-09-13T11:52:21;99494.44;;;22.11;57.62
35519;BME280;21627;48.216;16.482;2022-09-13T11:57:51;99492.59;;;22.31;59.12
35519;BME280;21627;48.216;16.482;2022-09-13T12:00:33;99488.59;;;22.39;56.39
35519;BME280;21627;48.216;16.482;2022-09-13T12:06:28;99480.50;;;22.60;53.08
35519;BME280;21627;48.216;16.482;2022-09-13T12:09:10;99495.75;;;22.86;51.42
35519;BME280;21627;48.216;16.482;2022-09-13T12:11:43;99481.38;;;22.92;54.37
35519;BME280;21627;48.216;16.482;2022-09-13T12:14:23;99460.03;;;22.97;53.96
35519;BME280;21627;48.216;16.482;2022-09-13T12:16:57;99468.19;;;23.08;53.12
35519;BME280;21627;48.216;16.482;2022-09-13T12:19:41;99469.31;;;23.20;52.74
35519;BME280;21627;48.216;16.482;2022-09-13T12:22:12;99465.31;;;23.28;53.91
35519;BME280;21627;48.216;16.482;2022-09-13T12:24:50;99443.63;;;23.53;52.51
35519;BME280;21627;48.216;16.482;2022-09-13T12:30:22;99433.44;;;23.78;50.44
35519;BME280;21627;48.216;16.482;2022-09-13T12:32:51;99421.66;;;23.83;52.13
35519;BME280;21627;48.216;16.482;2022-09-13T12:36:04;99414.78;;;23.81;52.45
35519;BME280;21627;48.216;16.482;2022-09-13T12:39:18;99418.75;;;23.88;51.82
35519;BME280;21627;48.216;16.482;2022-09-13T12:50:49;99405.84;;;23.97;49.16
35519;BME280;21627;48.216;16.482;2022-09-13T13:05:46;99391.97;;;24.93;48.62
35519;BME280;21627;48.216;16.482;2022-09-13T13:11:11;99402.34;;;25.23;45.63
35519;BME280;21627;48.216;16.482;2022-09-13T13:13:59;99400.56;;;25.36;47.56
35519;BME280;21627;48.216;16.482;2022-09-13T13:16:35;99394.00;;;25.42;46.73
35519;BME280;21627;48.216;16.482;2022-09-13T13:50:07;99356.06;;;26.57;42.82
35519;BME280;21627;48.216;16.482;2022-09-13T13:52:51;99348.78;;;26.34;42.84
35519;BME280;21627;48.216;16.482;2022-09-13T13:55:30;99349.63;;;26.72;43.38
35519;BME280;21627;48.216;16.482;2022-09-13T14:00:34;99343.38;;;27.08;43.97
35519;BME280;21627;48.216;16.482;2022-09-13T14:03:22;99341.25;;;27.13;39.48
35519;BME280;21627;48.216;16.482;2022-09-13T14:06:01;99347.53;;;26.88;40.11
35519;BME280;21627;48.216;16.482;2022-09-13T14:08:57;99343.31;;;26.62;40.71
35519;BME280;21627;48.216;16.482;2022-09-13T14:11:45;99351.38;;;26.60;40.69
35519;BME280;21627;48.216;16.482;2022-09-13T14:20:10;99334.59;;;27.43;39.98
35519;BME280;21627;48.216;16.482;2022-09-13T14:22:38;99333.03;;;27.40;38.66
35519;BME280;21627;48.216;16.482;2022-09-13T14:25:24;99317.88;;;27.18;37.72
35519;BME280;21627;48.216;16.482;2022-09-13T14:27:55;99308.16;;;27.30;39.86
35519;BME280;21627;48.216;16.482;2022-09-13T14:30:26;99325.75;;;27.20;40.88
35519;BME280;21627;48.216;16.482;2022-09-13T14:32:57;99319.59;;;26.95;40.55
35519;BME280;21627;48.216;16.482;2022-09-13T14:35:39;99333.72;;;26.72;40.56
35519;BME280;21627;48.216;16.482;2022-09-13T14:38:27;99322.25;;;26.34;39.23
35519;BME280;21627;48.216;16.482;2022-09-13T14:43:36;99329.78;;;25.91;42.21
35519;BME280;21627;48.216;16.482;2022-09-13T14:46:29;99322.38;;;25.71;44.56
35519;BME280;21627;48.216;16.482;2022-09-13T14:49:03;99314.22;;;25.48;45.10
35519;BME280;21627;48.216;16.482;2022-09-13T14:51:46;99314.38;;;25.32;42.66
35519;BME280;21627;48.216;16.482;2022-09-13T14:54:38;99298.63;;;25.18;42.18
35519;BME280;21627;48.216;16.482;2022-09-13T14:57:28;99309.25;;;25.03;42.19
35519;BME280;21627;48.216;16.482;2022-09-13T15:00:14;99301.91;;;24.94;43.18
35519;BME280;21627;48.216;16.482;2022-09-13T15:02:50;99299.44;;;24.78;44.73
35519;BME280;21627;48.216;16.482;2022-09-13T15:05:23;99311.38;;;24.71;44.07
35519;BME280;21627;48.216;16.482;2022-09-13T15:07:51;99301.78;;;24.56;44.42
35519;BME280;21627;48.216;16.482;2022-09-13T15:15:36;99294.84;;;23.99;49.80
35519;BME280;21627;48.216;16.482;2022-09-13T15:21:02;99294.91;;;23.69;51.91
35519;BME280;21627;48.216;16.482;2022-09-13T15:23:41;99282.06;;;23.48;51.80
35519;BME280;21627;48.216;16.482;2022-09-13T15:26:23;99282.91;;;23.35;52.37
35519;BME280;21627;48.216;16.482;2022-09-13T15:28:57;99286.78;;;23.29;53.50
35519;BME280;21627;48.216;16.482;2022-09-13T15:31:33;99281.09;;;23.21;53.50
35519;BME280;21627;48.216;16.482;2022-09-13T15:36:45;99284.63;;;23.05;53.63
35519;BME280;21627;48.216;16.482;2022-09-13T15:39:17;99270.13;;;22.82;53.83
35519;BME280;21627;48.216;16.482;2022-09-13T15:41:58;99274.63;;;22.80;53.68
35519;BME280;21627;48.216;16.482;2022-09-13T15:44:29;99280.03;;;22.79;54.43
35519;BME280;21627;48.216;16.482;2022-09-13T15:47:02;99287.41;;;22.72;53.51
35519;BME280;21627;48.216;16.482;2022-09-13T15:49:34;99287.03;;;22.64;55.09
35519;BME280;21627;48.216;16.482;2022-09-13T15:52:04;99280.41;;;22.57;56.26
35519;BME280;21627;48.216;16.482;2022-09-13T15:57:25;99269.97;;;22.39;54.83
35519;BME280;21627;48.216;16.482;2022-09-13T15:59:56;99281.34;;;22.40;55.10
35519;BME280;21627;48.216;16.482;2022-09-13T16:02:31;99275.84;;;22.29;54.93
35519;BME280;21627;48.216;16.482;2022-09-13T16:04:59;99284.84;;;22.24;54.93
35519;BME280;21627;48.216;16.482;2022-09-13T16:07:26;99283.31;;;22.20;56.67
35519;BME280;21627;48.216;16.482;2022-09-13T16:09:54;99290.59;;;22.15;58.12
35519;BME280;21627;48.216;16.482;2022-09-13T16:12:21;99272.91;;;22.01;56.63
35519;BME280;21627;48.216;16.482;2022-09-13T16:14:50;99278.41;;;21.97;56.48
35519;BME280;21627;48.216;16.482;2022-09-13T16:17:27;99281.41;;;21.91;58.01
35519;BME280;21627;48.216;16.482;2022-09-13T16:19:54;99288.69;;;21.86;58.64
35519;BME280;21627;48.216;16.482;2022-09-13T16:22:22;99278.66;;;21.76;59.20
35519;BME280;21627;48.216;16.482;2022-09-13T16:24:49;99276.44;;;21.69;60.52
35519;BME280;21627;48.216;16.482;2022-09-13T16:27:18;99280.00;;;21.68;59.54
35519;BME280;21627;48.216;16.482;2022-09-13T16:29:46;99278.63;;;21.60;61.59
35519;BME280;21627;48.216;16.482;2022-09-13T16:32:14;99274.69;;;21.52;60.61
35519;BME280;21627;48.216;16.482;2022-09-13T16:34:41;99257.84;;;21.38;58.77
35519;BME280;21627;48.216;16.482;2022-09-13T16:37:17;99269.44;;;21.52;58.04
35519;BME280;21627;48.216;16.482;2022-09-13T16:39:45;99258.56;;;21.42;59.66
35519;BME280;21627;48.216;16.482;2022-09-13T16:42:16;99265.03;;;21.35;59.71
35519;BME280;21627;48.216;16.482;2022-09-13T16:44:43;99264.84;;;21.39;57.52
35519;BME280;21627;48.216;16.482;2022-09-13T16:47:11;99277.88;;;21.41;56.94